createdAt,value
2022-10-18T00:00:07.763Z,7.37
2022-10-18T00:02:34.838Z,7.32
2022-10-18T00:05:01.865Z,7.31
2022-10-18T00:07:28.908Z,7.31
2022-10-18T00:09:56.105Z,7.28
2022-10-18T00:12:23.202Z,7.25
2022-10-18T00:14:51.171Z,7.14
2022-10-18T00:17:18.575Z,7.09
2022-10-18T00:19:46.753Z,7.05
2022-10-18T00:22:13.659Z,7.00
2022-10-18T00:24:40.696Z,7.10
2022-10-18T00:27:07.737Z,7.15
2022-10-18T00:29:34.943Z,7.07
2022-10-18T00:32:01.885Z,7.04
2022-10-18T00:34:28.779Z,6.96
2022-10-18T00:36:55.724Z,6.91
2022-10-18T00:39:22.920Z,6.84
2022-10-18T00:41:50.690Z,6.81
2022-10-18T00:44:17.437Z,6.70
2022-10-18T00:46:46.977Z,6.62
2022-10-18T00:49:16.544Z,6.62
2022-10-18T00:51:48.773Z,6.57
2022-10-18T00:54:18.220Z,6.55
2022-10-18T00:56:45.567Z,6.52
2022-10-18T00:59:15.334Z,6.51
2022-10-18T01:01:42.454Z,6.50
2022-10-18T01:04:09.577Z,6.51
2022-10-18T01:06:50.941Z,6.46
2022-10-18T01:09:41.876Z,6.47
2022-10-18T01:12:30.216Z,6.50
2022-10-18T01:15:21.181Z,6.50
2022-10-18T01:18:06.041Z,6.53
2022-10-18T01:20:46.395Z,6.52
2022-10-18T01:23:13.342Z,6.47
2022-10-18T01:25:57.294Z,6.49
2022-10-18T01:28:53.110Z,6.38
2022-10-18T01:31:31.933Z,6.38
2022-10-18T01:34:03.240Z,6.32
2022-10-18T01:36:35.190Z,6.33
2022-10-18T01:39:06.639Z,6.34
2022-10-18T01:41:36.247Z,6.34
2022-10-18T01:44:06.832Z,6.34
2022-10-18T01:46:34.149Z,6.34
2022-10-18T01:49:01.075Z,6.28
2022-10-18T01:51:31.761Z,6.26
2022-10-18T01:53:58.915Z,6.29
2022-10-18T01:56:55.240Z,6.30
2022-10-18T01:59:56.064Z,6.26
2022-10-18T02:02:35.164Z,6.24
2022-10-18T02:05:13.946Z,6.25
2022-10-18T02:08:18.749Z,6.24
2022-10-18T02:10:53.812Z,6.20
2022-10-18T02:13:24.796Z,6.10
2022-10-18T02:15:56.555Z,6.11
2022-10-18T02:18:32.147Z,5.99
2022-10-18T02:21:01.753Z,5.84
2022-10-18T02:23:28.694Z,5.84
2022-10-18T02:25:55.797Z,5.87
2022-10-18T02:28:25.938Z,5.84
2022-10-18T02:31:02.180Z,5.84
2022-10-18T02:33:46.583Z,5.90
2022-10-18T02:36:18.609Z,5.99
2022-10-18T02:38:46.771Z,6.01
2022-10-18T02:41:23.146Z,6.03
2022-10-18T02:43:49.929Z,6.05
2022-10-18T02:46:16.898Z,5.94
2022-10-18T02:48:43.832Z,5.80
2022-10-18T02:51:10.722Z,5.69
2022-10-18T02:53:37.602Z,5.61
2022-10-18T02:56:04.667Z,5.57
2022-10-18T02:58:31.553Z,5.53
2022-10-18T03:00:58.438Z,5.58
2022-10-18T03:03:25.438Z,5.71
2022-10-18T03:05:53.351Z,5.83
2022-10-18T03:08:20.359Z,5.95
2022-10-18T03:10:47.653Z,6.06
2022-10-18T03:13:14.553Z,6.05
2022-10-18T03:15:42.423Z,5.94
2022-10-18T03:18:09.622Z,5.89
2022-10-18T03:20:36.455Z,5.81
2022-10-18T03:23:03.620Z,5.73
2022-10-18T03:25:30.549Z,5.65
2022-10-18T03:27:57.341Z,5.60
2022-10-18T03:30:24.285Z,5.53
2022-10-18T03:32:51.286Z,5.53
2022-10-18T03:35:18.481Z,5.58
2022-10-18T03:37:45.229Z,5.68
2022-10-18T03:40:12.387Z,5.69
2022-10-18T03:42:39.432Z,5.67
2022-10-18T03:45:06.832Z,5.67
2022-10-18T03:47:33.780Z,5.60
2022-10-18T03:50:00.715Z,5.43
2022-10-18T03:52:28.174Z,5.28
2022-10-18T03:54:55.165Z,5.22
2022-10-18T03:57:22.074Z,5.33
2022-10-18T03:59:49.016Z,5.48
2022-10-18T04:02:15.915Z,5.69
2022-10-18T04:04:42.907Z,5.81
2022-10-18T04:07:09.844Z,5.81
2022-10-18T04:09:36.741Z,6.03
2022-10-18T04:12:03.691Z,6.37
2022-10-18T04:14:30.632Z,6.58
2022-10-18T04:16:57.469Z,6.90
2022-10-18T04:19:24.462Z,7.18
2022-10-18T04:21:51.258Z,7.32
2022-10-18T04:24:18.304Z,7.41
2022-10-18T04:26:45.255Z,7.51
2022-10-18T04:29:12.147Z,7.55
2022-10-18T04:31:39.042Z,7.59
2022-10-18T04:34:05.877Z,7.61
2022-10-18T04:36:32.733Z,7.64
2022-10-18T04:38:59.617Z,7.66
2022-10-18T04:41:26.713Z,7.66
2022-10-18T04:43:53.606Z,7.87
2022-10-18T04:46:20.352Z,8.09
2022-10-18T04:48:47.240Z,8.25
2022-10-18T04:51:14.185Z,8.28
2022-10-18T04:53:41.078Z,8.59
2022-10-18T04:56:08.382Z,8.72
2022-10-18T04:58:35.373Z,8.83
2022-10-18T05:01:08.264Z,8.89
2022-10-18T05:03:35.820Z,8.94
2022-10-18T05:06:03.521Z,9.03
2022-10-18T05:08:34.574Z,9.13
2022-10-18T05:11:02.132Z,9.23
2022-10-18T05:13:29.604Z,9.31
2022-10-18T05:15:56.549Z,9.39
2022-10-18T05:18:23.465Z,9.46
2022-10-18T05:20:50.375Z,9.48
2022-10-18T05:23:17.372Z,9.46
2022-10-18T05:25:44.571Z,9.40
2022-10-18T05:28:34.711Z,9.32
2022-10-18T05:31:06.579Z,9.27
2022-10-18T05:33:34.085Z,9.25
2022-10-18T05:36:01.637Z,9.23
2022-10-18T05:38:31.283Z,9.23
2022-10-18T05:40:59.373Z,9.26
2022-10-18T05:43:29.949Z,9.28
2022-10-18T05:45:56.849Z,9.27
2022-10-18T05:48:23.734Z,9.27
2022-10-18T05:50:51.398Z,9.26
2022-10-18T05:53:35.829Z,9.28
2022-10-18T05:56:04.385Z,9.29
2022-10-18T05:58:31.440Z,9.23
2022-10-18T06:01:02.372Z,9.19
2022-10-18T06:03:31.023Z,9.12
2022-10-18T06:06:07.274Z,9.13
2022-10-18T06:08:35.312Z,9.16
2022-10-18T06:11:15.453Z,9.19
2022-10-18T06:13:47.262Z,9.28
2022-10-18T06:16:15.768Z,9.22
2022-10-18T06:18:43.093Z,9.12
2022-10-18T06:21:10.336Z,8.97
2022-10-18T06:23:37.096Z,8.87
2022-10-18T06:26:07.711Z,8.75
2022-10-18T06:28:36.204Z,8.75
2022-10-18T06:31:04.526Z,8.64
2022-10-18T06:33:32.551Z,8.51
2022-10-18T06:36:03.792Z,8.39
2022-10-18T06:38:30.946Z,8.29
2022-10-18T06:40:58.493Z,8.23
2022-10-18T06:43:26.206Z,8.17
2022-10-18T06:45:53.509Z,8.12
2022-10-18T06:48:21.239Z,8.12
2022-10-18T06:50:59.142Z,8.15
2022-10-18T06:53:28.835Z,8.12
2022-10-18T06:56:07.606Z,8.11
2022-10-18T06:58:35.680Z,8.05
2022-10-18T07:01:13.831Z,8.04
2022-10-18T07:03:40.728Z,8.03
2022-10-18T07:06:09.267Z,8.02
2022-10-18T07:08:36.624Z,8.00
2022-10-18T07:11:04.280Z,8.00
2022-10-18T07:13:33.627Z,8.01
2022-10-18T07:16:11.589Z,8.08
2022-10-18T07:18:43.557Z,8.17
2022-10-18T07:21:12.964Z,8.23
2022-10-18T07:23:42.091Z,8.29
2022-10-18T07:26:20.762Z,8.38
2022-10-18T07:28:50.945Z,8.46
2022-10-18T07:31:18.497Z,8.56
2022-10-18T07:33:45.463Z,8.59
2022-10-18T07:36:13.403Z,8.64
2022-10-18T07:38:40.869Z,8.75
2022-10-18T07:41:11.403Z,9.00
2022-10-18T07:43:42.277Z,9.26
2022-10-18T07:46:09.530Z,9.48
2022-10-18T07:48:36.377Z,9.78
2022-10-18T07:51:04.602Z,10.05
2022-10-18T07:53:32.528Z,10.28
2022-10-18T07:56:07.273Z,10.50
2022-10-18T07:58:36.396Z,10.65
2022-10-18T08:01:07.893Z,10.85
2022-10-18T08:03:35.667Z,11.12
2022-10-18T08:06:03.425Z,11.44
2022-10-18T08:08:30.324Z,11.72
2022-10-18T08:11:03.672Z,11.90
2022-10-18T08:13:31.015Z,12.12
2022-10-18T08:16:06.823Z,12.28
2022-10-18T08:18:34.688Z,12.49
2022-10-18T08:21:05.877Z,12.70
2022-10-18T08:23:33.689Z,12.78
2022-10-18T08:26:09.440Z,12.67
2022-10-18T08:28:39.507Z,12.60
2022-10-18T08:31:17.475Z,12.34
2022-10-18T08:33:44.568Z,12.43
2022-10-18T08:36:15.004Z,12.66
2022-10-18T08:38:42.657Z,12.93
2022-10-18T08:41:34.395Z,13.17
2022-10-18T08:44:21.960Z,13.40
2022-10-18T08:46:52.176Z,13.55
2022-10-18T08:49:31.978Z,13.72
2022-10-18T08:51:59.274Z,13.87
2022-10-18T08:54:30.273Z,13.81
2022-10-18T08:57:01.580Z,13.75
2022-10-18T08:59:38.695Z,13.57
2022-10-18T09:02:44.099Z,13.52
2022-10-18T09:05:14.579Z,13.65
2022-10-18T09:08:09.931Z,13.77
2022-10-18T09:10:55.384Z,13.98
2022-10-18T09:13:40.490Z,14.01
2022-10-18T09:16:16.598Z,14.02
2022-10-18T09:19:10.283Z,13.96
2022-10-18T09:21:49.244Z,13.87
2022-10-18T09:25:00.529Z,13.81
2022-10-18T09:27:55.177Z,13.78
2022-10-18T09:30:49.710Z,13.83
2022-10-18T09:33:39.361Z,13.96
2022-10-18T09:36:09.758Z,14.07
2022-10-18T09:38:49.933Z,14.06
2022-10-18T09:41:26.077Z,14.05
2022-10-18T09:44:07.009Z,13.98
2022-10-18T09:46:39.175Z,13.97
2022-10-18T09:49:34.335Z,14.09
2022-10-18T09:52:06.908Z,14.04
2022-10-18T09:54:33.771Z,14.04
2022-10-18T09:57:12.899Z,14.12
2022-10-18T09:59:46.996Z,14.12
2022-10-18T10:02:16.863Z,14.14
2022-10-18T10:04:44.058Z,14.16
2022-10-18T10:07:24.939Z,14.22
2022-10-18T10:10:13.323Z,14.30
2022-10-18T10:12:41.503Z,14.43
2022-10-18T10:15:28.282Z,14.53
2022-10-18T10:18:07.241Z,14.56
2022-10-18T10:20:44.218Z,14.58
2022-10-18T10:23:20.334Z,14.73
2022-10-18T10:25:56.435Z,14.89
2022-10-18T10:28:33.529Z,15.06
2022-10-18T10:31:24.546Z,15.12
2022-10-18T10:34:05.044Z,15.19
2022-10-18T10:36:33.625Z,15.31
2022-10-18T10:39:08.322Z,15.32
2022-10-18T10:41:35.607Z,15.29
2022-10-18T10:44:05.209Z,15.21
2022-10-18T10:46:36.823Z,15.14
2022-10-18T10:49:35.079Z,15.16
2022-10-18T10:52:27.491Z,15.00
2022-10-18T10:57:47.640Z,14.98
2022-10-18T11:00:46.903Z,14.88
2022-10-18T11:03:28.417Z,14.98
2022-10-18T11:05:58.089Z,15.01
2022-10-18T11:08:30.769Z,15.06
2022-10-18T11:11:27.948Z,15.17
2022-10-18T11:14:25.802Z,15.19
2022-10-18T11:17:14.252Z,15.30
2022-10-18T11:19:58.906Z,15.34
2022-10-18T11:22:30.144Z,15.33
2022-10-18T11:24:57.363Z,15.36
2022-10-18T11:27:37.924Z,15.43
2022-10-18T11:30:16.282Z,15.63
2022-10-18T11:33:09.593Z,15.67
2022-10-18T11:35:47.702Z,15.78
2022-10-18T11:38:42.236Z,15.88
2022-10-18T11:41:20.252Z,15.97
2022-10-18T11:44:02.577Z,16.02
2022-10-18T11:46:51.570Z,16.00
2022-10-18T11:49:46.359Z,15.93
2022-10-18T11:52:27.995Z,15.87
2022-10-18T11:55:19.209Z,15.85
2022-10-18T11:57:49.288Z,15.89
2022-10-18T12:03:11.588Z,16.16
2022-10-18T12:05:41.489Z,16.35
2022-10-18T12:08:20.695Z,16.41
2022-10-18T12:11:05.581Z,16.43
2022-10-18T12:13:43.906Z,16.38
2022-10-18T12:16:12.555Z,16.30
2022-10-18T12:21:25.855Z,16.13
2022-10-18T12:23:58.469Z,16.12
2022-10-18T12:26:28.576Z,16.09
2022-10-18T12:29:14.420Z,16.06
2022-10-18T12:31:52.998Z,16.10
2022-10-18T12:34:22.758Z,16.06
2022-10-18T12:37:01.472Z,16.00
2022-10-18T12:39:43.662Z,15.81
2022-10-18T12:42:22.962Z,15.81
2022-10-18T12:45:00.268Z,15.72
2022-10-18T12:47:29.723Z,15.69
2022-10-18T12:50:04.127Z,15.69
2022-10-18T12:52:34.082Z,15.63
2022-10-18T12:55:19.565Z,15.49
2022-10-18T12:57:52.295Z,15.45
2022-10-18T13:00:31.244Z,15.42
2022-10-18T13:03:10.460Z,15.47
2022-10-18T13:05:55.206Z,15.55
2022-10-18T13:08:34.710Z,15.55
2022-10-18T13:11:01.450Z,15.63
2022-10-18T13:13:44.468Z,15.70
2022-10-18T13:16:14.286Z,15.82
2022-10-18T13:18:57.251Z,15.83
2022-10-18T13:21:41.817Z,15.85
2022-10-18T13:24:29.449Z,15.81
2022-10-18T13:27:36.562Z,15.94
2022-10-18T13:30:18.897Z,16.08
2022-10-18T13:33:09.791Z,16.33
2022-10-18T13:35:56.000Z,16.67
2022-10-18T13:39:03.874Z,16.82
2022-10-18T13:41:56.507Z,16.98
2022-10-18T13:44:40.024Z,17.05
2022-10-18T13:47:07.220Z,17.18
2022-10-18T13:49:39.861Z,17.22
2022-10-18T13:52:15.906Z,17.20
2022-10-18T13:55:27.346Z,17.10
2022-10-18T13:58:15.656Z,17.03
2022-10-18T14:00:55.186Z,16.91
2022-10-18T14:03:56.166Z,16.97
2022-10-18T14:06:27.124Z,17.06
2022-10-18T14:09:26.141Z,17.05
2022-10-18T14:12:12.201Z,16.96
2022-10-18T14:14:46.426Z,16.78
2022-10-18T14:17:19.814Z,16.62
2022-10-18T14:19:54.037Z,16.54
2022-10-18T14:22:25.586Z,16.47
2022-10-18T14:24:55.652Z,16.27
2022-10-18T14:27:25.060Z,16.09
2022-10-18T14:30:13.156Z,15.91
2022-10-18T14:32:50.020Z,15.78
2022-10-18T14:35:35.916Z,15.71
2022-10-18T14:38:03.320Z,15.59
2022-10-18T14:40:33.037Z,15.62
2022-10-18T14:43:05.609Z,15.57
2022-10-18T14:45:32.496Z,15.54
2022-10-18T14:48:24.020Z,15.50
2022-10-18T14:50:59.343Z,15.52
2022-10-18T14:53:36.196Z,15.58
2022-10-18T14:56:10.093Z,15.60
2022-10-18T14:58:38.284Z,15.68
2022-10-18T15:01:05.754Z,15.73
2022-10-18T15:03:35.909Z,15.73
2022-10-18T15:06:05.660Z,15.82
2022-10-18T15:08:40.499Z,15.85
2022-10-18T15:11:11.845Z,15.82
2022-10-18T15:14:03.306Z,15.80
2022-10-18T15:16:32.713Z,15.75
2022-10-18T15:19:07.378Z,15.79
2022-10-18T15:21:37.155Z,15.77
2022-10-18T15:24:30.262Z,15.75
2022-10-18T15:27:02.369Z,15.76
2022-10-18T15:29:33.469Z,15.77
2022-10-18T15:32:09.113Z,15.71
2022-10-18T15:34:36.213Z,15.77
2022-10-18T15:37:35.433Z,15.78
2022-10-18T15:40:21.609Z,15.79
2022-10-18T15:42:53.476Z,15.84
2022-10-18T15:45:27.680Z,15.85
2022-10-18T15:48:03.283Z,15.87
2022-10-18T15:50:53.527Z,15.85
2022-10-18T15:53:23.794Z,15.93
2022-10-18T15:56:00.013Z,15.89
2022-10-18T15:58:44.054Z,15.83
2022-10-18T16:01:17.467Z,15.69
2022-10-18T16:03:46.667Z,15.69
2022-10-18T16:06:18.083Z,15.61
2022-10-18T16:08:50.423Z,15.56
2022-10-18T16:11:19.775Z,15.52
2022-10-18T16:13:47.532Z,15.46
2022-10-18T16:16:18.328Z,15.39
2022-10-18T16:18:45.422Z,15.35
2022-10-18T16:21:26.755Z,15.26
2022-10-18T16:23:53.990Z,15.19
2022-10-18T16:26:21.719Z,15.10
2022-10-18T16:28:49.550Z,15.04
2022-10-18T16:31:29.275Z,14.95
2022-10-18T16:33:57.292Z,14.89
2022-10-18T16:36:27.003Z,14.90
2022-10-18T16:38:55.332Z,14.88
2022-10-18T16:41:22.904Z,14.85
2022-10-18T16:43:50.407Z,14.83
2022-10-18T16:46:28.095Z,14.83
2022-10-18T16:48:55.609Z,14.79
2022-10-18T16:51:22.813Z,14.75
2022-10-18T16:53:49.967Z,14.74
2022-10-18T16:56:25.915Z,14.71
2022-10-18T16:58:53.529Z,14.70
2022-10-18T17:01:22.629Z,14.65
2022-10-18T17:03:52.334Z,14.63
2022-10-18T17:06:25.466Z,14.58
2022-10-18T17:08:54.312Z,14.54
2022-10-18T17:11:22.837Z,14.52
2022-10-18T17:13:50.093Z,14.50
2022-10-18T17:16:31.751Z,14.48
2022-10-18T17:19:01.743Z,14.47
2022-10-18T17:21:29.867Z,14.44
2022-10-18T17:24:03.190Z,14.42
2022-10-18T17:26:30.809Z,14.41
2022-10-18T17:29:08.447Z,14.38
2022-10-18T17:31:35.991Z,14.38
2022-10-18T17:34:03.536Z,14.34
2022-10-18T17:36:32.385Z,14.19
2022-10-18T17:38:59.212Z,14.37
2022-10-18T17:41:26.475Z,14.37
2022-10-18T17:43:53.624Z,14.36
2022-10-18T17:46:20.681Z,14.35
2022-10-18T17:48:47.877Z,14.36
2022-10-18T17:51:17.172Z,14.35
2022-10-18T17:53:44.580Z,14.35
2022-10-18T17:56:12.853Z,14.32
2022-10-18T17:58:40.154Z,14.27
2022-10-18T18:01:15.250Z,14.23
2022-10-18T18:03:42.943Z,14.22
2022-10-18T18:06:36.736Z,14.20
2022-10-18T18:09:08.542Z,14.20
2022-10-18T18:11:37.038Z,14.20
2022-10-18T18:14:09.326Z,14.23
2022-10-18T18:16:41.715Z,14.20
2022-10-18T18:19:10.035Z,14.17
2022-10-18T18:21:38.160Z,14.18
2022-10-18T18:24:05.314Z,14.17
2022-10-18T18:26:33.584Z,14.19
2022-10-18T18:31:38.621Z,14.29
2022-10-18T18:34:09.989Z,14.27
2022-10-18T18:36:37.193Z,14.28
2022-10-18T18:39:05.755Z,14.27
2022-10-18T18:41:33.395Z,14.27
2022-10-18T18:44:02.270Z,14.24
2022-10-18T18:46:33.313Z,14.23
2022-10-18T18:49:00.829Z,14.20
2022-10-18T18:51:28.594Z,14.18
2022-10-18T18:53:55.594Z,14.16
2022-10-18T18:56:24.319Z,14.17
2022-10-18T18:58:52.299Z,14.17
2022-10-18T19:01:21.736Z,14.18
2022-10-18T19:03:50.486Z,14.19
2022-10-18T19:06:23.515Z,14.22
2022-10-18T19:08:52.814Z,14.16
2022-10-18T19:11:22.485Z,14.21
2022-10-18T19:13:49.932Z,14.21
2022-10-18T19:16:28.291Z,14.21
2022-10-18T19:18:57.080Z,14.24
2022-10-18T19:21:25.824Z,14.25
2022-10-18T19:23:53.697Z,14.26
2022-10-18T19:26:54.423Z,14.22
2022-10-18T19:29:24.795Z,14.26
2022-10-18T19:31:53.848Z,14.23
2022-10-18T19:34:22.273Z,14.20
2022-10-18T19:36:50.088Z,14.22
2022-10-18T19:39:34.342Z,14.20
2022-10-18T19:42:03.841Z,14.18
2022-10-18T19:44:33.150Z,14.10
2022-10-18T19:47:00.807Z,13.97
2022-10-18T19:49:28.928Z,13.95
2022-10-18T19:51:56.805Z,13.90
2022-10-18T19:54:24.616Z,13.94
2022-10-18T19:56:51.876Z,13.93
2022-10-18T19:59:19.380Z,13.95
2022-10-18T20:01:46.457Z,13.91
2022-10-18T20:04:13.928Z,14.02
2022-10-18T20:06:41.689Z,14.05
2022-10-18T20:09:12.353Z,14.11
2022-10-18T20:11:41.876Z,14.11
2022-10-18T20:14:10.989Z,14.11
2022-10-18T20:16:37.869Z,14.20
2022-10-18T20:19:07.523Z,14.20
2022-10-18T20:21:36.173Z,14.21
2022-10-18T20:24:07.146Z,14.25
2022-10-18T20:26:36.120Z,14.25
2022-10-18T20:29:04.178Z,14.26
2022-10-18T20:31:33.981Z,14.24
2022-10-18T20:34:02.765Z,14.25
2022-10-18T20:36:31.346Z,14.25
2022-10-18T20:38:59.063Z,14.23
2022-10-18T20:41:28.624Z,14.20
2022-10-18T20:43:58.848Z,14.18
2022-10-18T20:46:27.725Z,14.19
2022-10-18T20:48:54.992Z,14.18
2022-10-18T20:51:23.201Z,14.18
2022-10-18T20:53:50.409Z,14.18
2022-10-18T20:56:22.687Z,14.20
2022-10-18T20:58:51.674Z,14.20
2022-10-18T21:01:21.351Z,14.17
2022-10-18T21:03:50.326Z,14.17
2022-10-18T21:06:19.672Z,14.15
2022-10-18T21:08:46.977Z,14.17
2022-10-18T21:11:14.582Z,14.17
2022-10-18T21:13:41.420Z,14.17
2022-10-18T21:16:08.275Z,14.19
2022-10-18T21:18:37.059Z,14.21
2022-10-18T21:21:14.538Z,14.23
2022-10-18T21:23:43.297Z,14.24
2022-10-18T21:26:24.828Z,14.27
2022-10-18T21:28:53.955Z,14.25
2022-10-18T21:31:23.583Z,14.15
2022-10-18T21:33:58.769Z,14.06
2022-10-18T21:36:26.785Z,14.01
2022-10-18T21:38:53.842Z,13.98
2022-10-18T21:41:22.375Z,13.99
2022-10-18T21:43:52.392Z,13.98
2022-10-18T21:46:21.588Z,13.97
2022-10-18T21:48:50.994Z,13.98
2022-10-18T21:51:19.985Z,14.00
2022-10-18T21:53:48.768Z,13.98
2022-10-18T21:56:21.602Z,13.96
2022-10-18T21:58:48.749Z,13.95
2022-10-18T22:01:18.232Z,13.92
2022-10-18T22:03:46.223Z,13.89
2022-10-18T22:06:15.379Z,13.87
2022-10-18T22:08:50.761Z,13.87
2022-10-18T22:11:19.958Z,13.87
2022-10-18T22:13:47.160Z,13.90
2022-10-18T22:16:16.662Z,13.94
2022-10-18T22:18:45.090Z,13.97
2022-10-18T22:21:14.087Z,13.97
2022-10-18T22:23:44.001Z,13.93
2022-10-18T22:26:16.690Z,13.84
2022-10-18T22:28:45.144Z,13.68
2022-10-18T22:31:21.126Z,13.48
2022-10-18T22:33:54.206Z,13.36
2022-10-18T22:36:21.252Z,13.26
2022-10-18T22:38:48.145Z,13.20
2022-10-18T22:41:15.096Z,13.20
2022-10-18T22:43:42.397Z,13.13
2022-10-18T22:46:11.901Z,13.09
2022-10-18T22:48:39.304Z,13.02
2022-10-18T22:51:06.875Z,13.06
2022-10-18T22:53:34.332Z,13.07
2022-10-18T22:56:01.420Z,13.09
2022-10-18T22:58:28.625Z,13.10
2022-10-18T23:01:07.349Z,13.14
2022-10-18T23:03:34.511Z,13.16
2022-10-18T23:06:02.054Z,13.21
2022-10-18T23:08:29.715Z,13.24
2022-10-18T23:10:59.066Z,13.30
2022-10-18T23:13:27.157Z,13.26
2022-10-18T23:15:54.131Z,13.38
2022-10-18T23:18:20.980Z,13.39
2022-10-18T23:20:47.774Z,13.38
2022-10-18T23:23:14.651Z,13.38
2022-10-18T23:25:41.509Z,13.40
2022-10-18T23:28:08.399Z,13.40
2022-10-18T23:30:38.320Z,13.40
2022-10-18T23:33:05.157Z,13.43
2022-10-18T23:35:31.893Z,13.44
2022-10-18T23:37:58.839Z,13.44
2022-10-18T23:40:25.739Z,13.46
2022-10-18T23:42:52.627Z,13.43
2022-10-18T23:45:19.580Z,13.45
2022-10-18T23:47:46.465Z,13.45
2022-10-18T23:50:13.313Z,13.45
2022-10-18T23:52:40.212Z,13.46
2022-10-18T23:55:07.718Z,13.47
2022-10-18T23:57:34.710Z,13.48
